Melbourne International Airport
KMLB : rendu visible

Aérodrome :











RETROUVEZ-NOUS SUR...

 
LOGIN :

S'inscrire | Disclaimer

   EN    FR    IT 

 









Légende :    VFR   VFR Marginal   IFR   IFR Intensif   IFR Très Intensif
Visi : 
Plafond : 
>= 8 km
>= 3000ft
5 à 8 km
1000 à 3000 ft
1500m à 5 km
500 à 1000 ft
800 à 1500m
200 à 500 ft
< 800m
< 200 ft
Symboles :   Orages  Brouillard  Fortes neiges  Fortes précipitations  Vent > 20 kt






- Altitude de l'aérodrome : 33 ft
- Code IATA : MLB


KMLB - Melbourne International

DERNIER METAR :
  • 151653Z 22010KT 10SM SCT030 BKN110 27/22 A2995 RMK AO2 RAB06E24 SLP140 P0000 T02670217

METARs EXPIRÉS :
  • 151553Z 23010KT 10SM SCT022 SCT030 26/22 A2995 RMK AO2 RAB32E43 SLP140 P0000 T02610222
  • 151453Z 20011KT 10SM CLR 26/22 A2998 RMK AO2 SLP150 60001 T02560222 51007

TAF KMLB
Valide du 15 à 12h jusqu'au 16 à 12h UTC


151142Z 1512/1612 19006KT P6SM VCSH SCT015 BKN040 BKN060
FM151500 22009KT P6SM VCSH SCT015 BKN035 OVC120
TEMPO 1515/1519 3SM SHRA SCT008 BKN015
FM151900 26008KT P6SM VCSH SCT008 BKN015 OVC050
FM152200 29008KT P6SM VCSH SCT008 BKN012 OVC040
FM160100 30007KT P6SM SCT007 BKN012 BKN030



MET'MAP, la Météo Aéronautique d'un coup d'oeil ! - Copyright ORBIFLY Décembre 2007 - Disclaimer

ORBIFLY MET'MAP TEAM :

Programmation & Développement : Alexandra Zaïnal
Conception & Développement : Baudouin d'Aumeries
Co-Programmation & Développement : Marc-Olivier Méhu
Soutien technique & logistique : Manuel Goepfert

Contact : metmap@orbifly.com




SOURCES & CREDITS :

   NOAA       Earth
Advisory